sensor_id;sensor_type;location;lat;lon;timestamp;pressure;altitude;pressure_sealevel;temperature;humidity
11808;BME280;5961;42.640;23.380;2023-04-27T00:02:26;93749.94;;;8.88;63.89
11808;BME280;5961;42.640;23.380;2023-04-27T00:04:53;93742.00;;;8.88;63.48
11808;BME280;5961;42.640;23.380;2023-04-27T00:07:20;93761.41;;;8.92;63.61
11808;BME280;5961;42.640;23.380;2023-04-27T00:09:48;93783.72;;;8.79;63.59
11808;BME280;5961;42.640;23.380;2023-04-27T00:12:16;93746.72;;;8.82;63.72
11808;BME280;5961;42.640;23.380;2023-04-27T00:14:42;93761.84;;;8.82;63.64
11808;BME280;5961;42.640;23.380;2023-04-27T00:17:09;93732.47;;;8.75;64.26
11808;BME280;5961;42.640;23.380;2023-04-27T00:19:36;93754.09;;;8.77;63.61
11808;BME280;5961;42.640;23.380;2023-04-27T00:22:03;93764.34;;;8.66;63.71
11808;BME280;5961;42.640;23.380;2023-04-27T00:24:30;93755.41;;;8.71;63.68
11808;BME280;5961;42.640;23.380;2023-04-27T00:26:58;93770.41;;;8.67;63.90
11808;BME280;5961;42.640;23.380;2023-04-27T00:29:25;93744.00;;;8.58;63.51
11808;BME280;5961;42.640;23.380;2023-04-27T00:31:52;93750.19;;;8.62;63.74
11808;BME280;5961;42.640;23.380;2023-04-27T00:34:19;93764.09;;;8.59;63.63
11808;BME280;5961;42.640;23.380;2023-04-27T00:36:45;93761.78;;;8.58;63.70
11808;BME280;5961;42.640;23.380;2023-04-27T00:39:12;93747.41;;;8.59;63.91
11808;BME280;5961;42.640;23.380;2023-04-27T00:41:39;93741.03;;;8.60;64.18
11808;BME280;5961;42.640;23.380;2023-04-27T00:44:07;93756.53;;;8.49;63.86
11808;BME280;5961;42.640;23.380;2023-04-27T00:46:34;93756.75;;;8.44;64.17
11808;BME280;5961;42.640;23.380;2023-04-27T00:49:01;93717.03;;;8.23;64.15
11808;BME280;5961;42.640;23.380;2023-04-27T00:51:28;93757.78;;;8.31;63.93
11808;BME280;5961;42.640;23.380;2023-04-27T00:53:56;93782.00;;;8.42;64.10
11808;BME280;5961;42.640;23.380;2023-04-27T00:56:24;93779.34;;;8.42;63.59
11808;BME280;5961;42.640;23.380;2023-04-27T00:58:50;93760.75;;;8.30;63.73
11808;BME280;5961;42.640;23.380;2023-04-27T01:01:18;93730.25;;;8.23;64.08
11808;BME280;5961;42.640;23.380;2023-04-27T01:03:48;93755.47;;;8.30;64.11
11808;BME280;5961;42.640;23.380;2023-04-27T01:06:15;93766.75;;;8.39;64.06
11808;BME280;5961;42.640;23.380;2023-04-27T01:08:41;93775.56;;;8.31;64.11
11808;BME280;5961;42.640;23.380;2023-04-27T01:11:08;93788.16;;;8.34;64.05
11808;BME280;5961;42.640;23.380;2023-04-27T01:13:35;93781.94;;;8.30;63.92
11808;BME280;5961;42.640;23.380;2023-04-27T01:16:02;93759.44;;;8.15;64.38
11808;BME280;5961;42.640;23.380;2023-04-27T01:18:30;93775.22;;;8.32;64.17
11808;BME280;5961;42.640;23.380;2023-04-27T01:20:57;93787.06;;;8.26;64.54
11808;BME280;5961;42.640;23.380;2023-04-27T01:23:26;93770.16;;;8.18;64.58
11808;BME280;5961;42.640;23.380;2023-04-27T01:25:52;93776.56;;;8.17;64.42
11808;BME280;5961;42.640;23.380;2023-04-27T01:28:19;93771.13;;;8.14;64.39
11808;BME280;5961;42.640;23.380;2023-04-27T01:30:45;93786.22;;;8.13;64.47
11808;BME280;5961;42.640;23.380;2023-04-27T01:33:13;93776.47;;;8.05;64.78
11808;BME280;5961;42.640;23.380;2023-04-27T01:35:39;93794.03;;;8.10;64.39
11808;BME280;5961;42.640;23.380;2023-04-27T01:38:06;93773.84;;;8.05;64.94
11808;BME280;5961;42.640;23.380;2023-04-27T01:40:34;93801.13;;;7.97;64.92
11808;BME280;5961;42.640;23.380;2023-04-27T01:43:01;93776.78;;;8.04;64.76
11808;BME280;5961;42.640;23.380;2023-04-27T01:45:27;93776.03;;;8.03;64.67
11808;BME280;5961;42.640;23.380;2023-04-27T01:47:54;93792.56;;;8.00;64.32
11808;BME280;5961;42.640;23.380;2023-04-27T01:50:21;93782.66;;;7.89;64.99
11808;BME280;5961;42.640;23.380;2023-04-27T01:52:48;93808.59;;;7.95;64.73
11808;BME280;5961;42.640;23.380;2023-04-27T01:55:14;93789.06;;;7.88;64.65
11808;BME280;5961;42.640;23.380;2023-04-27T01:57:42;93767.56;;;7.89;64.54
11808;BME280;5961;42.640;23.380;2023-04-27T02:00:10;93786.53;;;7.91;64.66
11808;BME280;5961;42.640;23.380;2023-04-27T02:02:37;93788.41;;;7.91;64.22
11808;BME280;5961;42.640;23.380;2023-04-27T02:05:04;93797.00;;;7.88;64.53
11808;BME280;5961;42.640;23.380;2023-04-27T02:07:31;93784.22;;;7.90;64.44
11808;BME280;5961;42.640;23.380;2023-04-27T02:09:58;93789.06;;;7.88;64.47
11808;BME280;5961;42.640;23.380;2023-04-27T02:12:24;93780.34;;;7.87;64.45
11808;BME280;5961;42.640;23.380;2023-04-27T02:14:53;93785.94;;;7.86;64.62
11808;BME280;5961;42.640;23.380;2023-04-27T02:17:19;93792.34;;;7.85;64.17
11808;BME280;5961;42.640;23.380;2023-04-27T02:19:46;93805.06;;;7.91;64.52
11808;BME280;5961;42.640;23.380;2023-04-27T02:22:13;93797.78;;;7.88;64.32
11808;BME280;5961;42.640;23.380;2023-04-27T02:24:40;93803.81;;;7.89;64.23
11808;BME280;5961;42.640;23.380;2023-04-27T02:27:07;93805.38;;;7.90;64.07
11808;BME280;5961;42.640;23.380;2023-04-27T02:29:34;93801.38;;;7.84;63.64
11808;BME280;5961;42.640;23.380;2023-04-27T02:32:04;93789.50;;;7.90;63.80
11808;BME280;5961;42.640;23.380;2023-04-27T02:34:31;93795.44;;;7.87;63.84
11808;BME280;5961;42.640;23.380;2023-04-27T02:36:57;93790.91;;;7.87;63.89
11808;BME280;5961;42.640;23.380;2023-04-27T02:39:24;93783.34;;;7.77;64.01
11808;BME280;5961;42.640;23.380;2023-04-27T02:41:51;93799.69;;;7.79;63.90
11808;BME280;5961;42.640;23.380;2023-04-27T02:44:17;93794.13;;;7.72;64.34
11808;BME280;5961;42.640;23.380;2023-04-27T02:46:44;93790.84;;;7.75;64.01
11808;BME280;5961;42.640;23.380;2023-04-27T02:49:12;93794.41;;;7.79;63.71
11808;BME280;5961;42.640;23.380;2023-04-27T02:51:39;93798.78;;;7.75;63.75
11808;BME280;5961;42.640;23.380;2023-04-27T02:54:05;93815.41;;;7.76;63.87
11808;BME280;5961;42.640;23.380;2023-04-27T02:56:32;93793.47;;;7.75;63.71
11808;BME280;5961;42.640;23.380;2023-04-27T02:58:59;93807.47;;;7.76;63.62
11808;BME280;5961;42.640;23.380;2023-04-27T03:01:25;93807.97;;;7.69;63.81
11808;BME280;5961;42.640;23.380;2023-04-27T03:03:52;93807.97;;;7.69;63.82
11808;BME280;5961;42.640;23.380;2023-04-27T03:06:20;93810.34;;;7.62;63.49
11808;BME280;5961;42.640;23.380;2023-04-27T03:08:47;93823.84;;;7.69;63.56
11808;BME280;5961;42.640;23.380;2023-04-27T03:11:13;93796.16;;;7.66;63.66
11808;BME280;5961;42.640;23.380;2023-04-27T03:13:40;93806.91;;;7.70;63.71
11808;BME280;5961;42.640;23.380;2023-04-27T03:16:08;93813.59;;;7.67;63.74
11808;BME280;5961;42.640;23.380;2023-04-27T03:18:35;93814.34;;;7.68;63.53
11808;BME280;5961;42.640;23.380;2023-04-27T03:21:06;93845.34;;;7.67;63.51
11808;BME280;5961;42.640;23.380;2023-04-27T03:23:34;93829.03;;;7.57;63.69
11808;BME280;5961;42.640;23.380;2023-04-27T03:26:04;93823.75;;;7.57;63.60
11808;BME280;5961;42.640;23.380;2023-04-27T03:28:32;93765.72;;;7.23;63.55
11808;BME280;5961;42.640;23.380;2023-04-27T03:30:59;93816.41;;;7.62;63.33
11808;BME280;5961;42.640;23.380;2023-04-27T03:33:25;93834.63;;;7.64;63.88
11808;BME280;5961;42.640;23.380;2023-04-27T03:35:56;93824.53;;;7.57;63.69
11808;BME280;5961;42.640;23.380;2023-04-27T03:38:23;93826.69;;;7.64;63.30
11808;BME280;5961;42.640;23.380;2023-04-27T03:40:52;93829.31;;;7.64;63.30
11808;BME280;5961;42.640;23.380;2023-04-27T03:43:19;93855.78;;;7.64;63.18
11808;BME280;5961;42.640;23.380;2023-04-27T03:45:47;93793.84;;;7.27;63.08
11808;BME280;5961;42.640;23.380;2023-04-27T03:48:14;93828.09;;;7.53;63.51
11808;BME280;5961;42.640;23.380;2023-04-27T03:50:41;93823.94;;;7.52;63.70
11808;BME280;5961;42.640;23.380;2023-04-27T03:53:08;93825.16;;;7.54;63.77
11808;BME280;5961;42.640;23.380;2023-04-27T03:55:37;93841.47;;;7.56;65.07
11808;BME280;5961;42.640;23.380;2023-04-27T03:58:05;93861.22;;;7.59;64.56
11808;BME280;5961;42.640;23.380;2023-04-27T04:00:32;93838.53;;;7.58;64.14
11808;BME280;5961;42.640;23.380;2023-04-27T04:02:59;93860.31;;;7.55;63.26
11808;BME280;5961;42.640;23.380;2023-04-27T04:05:25;93855.66;;;7.52;63.64
11808;BME280;5961;42.640;23.380;2023-04-27T04:07:52;93853.66;;;7.49;63.75
11808;BME280;5961;42.640;23.380;2023-04-27T04:10:19;93866.69;;;7.54;63.18
11808;BME280;5961;42.640;23.380;2023-04-27T04:12:46;93860.78;;;7.57;63.59
11808;BME280;5961;42.640;23.380;2023-04-27T04:15:14;93864.97;;;7.58;63.33
11808;BME280;5961;42.640;23.380;2023-04-27T04:17:40;93863.88;;;7.59;63.13
11808;BME280;5961;42.640;23.380;2023-04-27T04:20:08;93871.97;;;7.54;62.84
11808;BME280;5961;42.640;23.380;2023-04-27T04:22:35;93890.81;;;7.52;62.92
11808;BME280;5961;42.640;23.380;2023-04-27T04:25:02;93875.22;;;7.59;62.86
11808;BME280;5961;42.640;23.380;2023-04-27T04:27:29;93888.59;;;7.63;62.69
11808;BME280;5961;42.640;23.380;2023-04-27T04:29:56;93886.72;;;7.63;62.41
11808;BME280;5961;42.640;23.380;2023-04-27T04:32:26;93886.88;;;7.67;62.46
11808;BME280;5961;42.640;23.380;2023-04-27T04:34:55;93883.00;;;7.64;62.53
11808;BME280;5961;42.640;23.380;2023-04-27T04:37:23;93902.75;;;7.67;62.50
11808;BME280;5961;42.640;23.380;2023-04-27T04:39:49;93888.09;;;7.69;62.15
11808;BME280;5961;42.640;23.380;2023-04-27T04:42:16;93901.81;;;7.63;61.27
11808;BME280;5961;42.640;23.380;2023-04-27T04:44:43;93890.59;;;7.66;61.98
11808;BME280;5961;42.640;23.380;2023-04-27T04:47:10;93901.00;;;7.71;61.60
11808;BME280;5961;42.640;23.380;2023-04-27T04:49:38;93899.72;;;7.77;62.01
11808;BME280;5961;42.640;23.380;2023-04-27T04:52:05;93902.38;;;7.77;62.27
11808;BME280;5961;42.640;23.380;2023-04-27T04:54:32;93905.03;;;7.77;61.55
11808;BME280;5961;42.640;23.380;2023-04-27T04:56:58;93912.97;;;7.77;61.68
11808;BME280;5961;42.640;23.380;2023-04-27T04:59:26;93910.06;;;7.70;62.00
11808;BME280;5961;42.640;23.380;2023-04-27T05:01:53;93915.59;;;7.77;62.07
11808;BME280;5961;42.640;23.380;2023-04-27T05:04:20;93924.19;;;7.74;62.83
11808;BME280;5961;42.640;23.380;2023-04-27T05:06:48;93923.88;;;7.76;62.38
11808;BME280;5961;42.640;23.380;2023-04-27T05:09:15;93928.84;;;7.77;62.01
11808;BME280;5961;42.640;23.380;2023-04-27T05:11:41;93877.13;;;7.50;62.38
11808;BME280;5961;42.640;23.380;2023-04-27T05:14:08;93925.41;;;7.85;62.21
11808;BME280;5961;42.640;23.380;2023-04-27T05:16:35;93921.66;;;7.86;61.59
11808;BME280;5961;42.640;23.380;2023-04-27T05:19:01;93939.06;;;7.87;61.61
11808;BME280;5961;42.640;23.380;2023-04-27T05:21:30;93943.28;;;7.88;62.00
11808;BME280;5961;42.640;23.380;2023-04-27T05:23:59;93927.72;;;7.87;61.26
11808;BME280;5961;42.640;23.380;2023-04-27T05:26:26;93934.72;;;7.91;61.99
11808;BME280;5961;42.640;23.380;2023-04-27T05:28:52;93956.16;;;7.98;61.49
11808;BME280;5961;42.640;23.380;2023-04-27T05:31:19;93953.06;;;7.96;61.28
11808;BME280;5961;42.640;23.380;2023-04-27T05:33:46;93953.97;;;8.00;61.12
11808;BME280;5961;42.640;23.380;2023-04-27T05:36:12;93940.66;;;7.88;61.24
11808;BME280;5961;42.640;23.380;2023-04-27T05:38:39;93934.72;;;7.91;61.69
11808;BME280;5961;42.640;23.380;2023-04-27T05:41:08;93949.97;;;7.94;61.57
11808;BME280;5961;42.640;23.380;2023-04-27T05:43:35;93936.88;;;7.89;61.41
11808;BME280;5961;42.640;23.380;2023-04-27T05:46:03;93930.97;;;7.92;62.12
11808;BME280;5961;42.640;23.380;2023-04-27T05:48:30;93946.56;;;7.85;61.13
11808;BME280;5961;42.640;23.380;2023-04-27T05:51:00;93937.72;;;7.72;61.68
11808;BME280;5961;42.640;23.380;2023-04-27T05:53:27;93967.13;;;7.71;61.58
11808;BME280;5961;42.640;23.380;2023-04-27T05:55:54;93954.38;;;7.73;62.19
11808;BME280;5961;42.640;23.380;2023-04-27T05:58:22;93942.25;;;7.72;62.17
11808;BME280;5961;42.640;23.380;2023-04-27T06:00:49;93948.63;;;7.71;62.29
11808;BME280;5961;42.640;23.380;2023-04-27T06:03:16;93941.00;;;7.69;62.57
11808;BME280;5961;42.640;23.380;2023-04-27T06:05:43;93962.44;;;7.77;62.44
11808;BME280;5961;42.640;23.380;2023-04-27T06:08:10;93949.41;;;7.63;63.07
11808;BME280;5961;42.640;23.380;2023-04-27T06:10:37;93959.53;;;7.69;63.36
11808;BME280;5961;42.640;23.380;2023-04-27T06:13:04;93957.03;;;7.73;63.37
11808;BME280;5961;42.640;23.380;2023-04-27T06:15:32;93940.22;;;7.69;63.12
11808;BME280;5961;42.640;23.380;2023-04-27T06:17:59;93952.97;;;7.76;63.64
11808;BME280;5961;42.640;23.380;2023-04-27T06:20:25;93957.16;;;7.77;63.61
11808;BME280;5961;42.640;23.380;2023-04-27T06:22:52;93958.53;;;7.91;63.95
11808;BME280;5961;42.640;23.380;2023-04-27T06:25:19;93962.72;;;7.92;63.82
11808;BME280;5961;42.640;23.380;2023-04-27T06:27:45;93958.34;;;7.96;63.47
11808;BME280;5961;42.640;23.380;2023-04-27T06:30:12;93953.97;;;8.00;63.34
11808;BME280;5961;42.640;23.380;2023-04-27T06:32:41;93945.41;;;7.95;63.40
11808;BME280;5961;42.640;23.380;2023-04-27T06:35:08;93976.69;;;8.01;63.12
11808;BME280;5961;42.640;23.380;2023-04-27T06:37:35;93989.44;;;8.08;63.30
11808;BME280;5961;42.640;23.380;2023-04-27T06:40:02;93950.97;;;8.10;63.17
11808;BME280;5961;42.640;23.380;2023-04-27T06:42:29;93959.69;;;8.11;62.51
11808;BME280;5961;42.640;23.380;2023-04-27T06:44:55;93959.38;;;8.12;62.96
11808;BME280;5961;42.640;23.380;2023-04-27T06:47:22;93958.41;;;8.17;62.60
11808;BME280;5961;42.640;23.380;2023-04-27T06:49:50;93945.63;;;8.19;62.91
11808;BME280;5961;42.640;23.380;2023-04-27T06:52:17;93951.69;;;8.28;62.58
11808;BME280;5961;42.640;23.380;2023-04-27T06:54:44;93945.91;;;8.26;62.46
11808;BME280;5961;42.640;23.380;2023-04-27T06:57:11;93940.00;;;8.29;62.21
11808;BME280;5961;42.640;23.380;2023-04-27T06:59:37;93952.41;;;8.46;62.52
11808;BME280;5961;42.640;23.380;2023-04-27T07:02:04;93946.91;;;8.51;62.18
11808;BME280;5961;42.640;23.380;2023-04-27T07:04:31;93948.28;;;8.57;62.08
11808;BME280;5961;42.640;23.380;2023-04-27T07:06:59;93951.31;;;8.67;62.08
11808;BME280;5961;42.640;23.380;2023-04-27T07:09:26;93946.44;;;8.78;61.33
11808;BME280;5961;42.640;23.380;2023-04-27T07:11:53;93949.78;;;8.87;61.59
11808;BME280;5961;42.640;23.380;2023-04-27T07:14:20;93967.50;;;8.95;61.49
11808;BME280;5961;42.640;23.380;2023-04-27T07:16:47;93946.75;;;8.97;60.59
11808;BME280;5961;42.640;23.380;2023-04-27T07:19:14;93945.66;;;8.98;60.41
11808;BME280;5961;42.640;23.380;2023-04-27T07:21:40;93958.06;;;9.06;60.17
11808;BME280;5961;42.640;23.380;2023-04-27T07:24:08;93948.06;;;9.12;60.01
11808;BME280;5961;42.640;23.380;2023-04-27T07:26:35;93947.06;;;9.16;59.55
11808;BME280;5961;42.640;23.380;2023-04-27T07:29:02;93935.38;;;9.17;59.55
11808;BME280;5961;42.640;23.380;2023-04-27T07:31:29;93929.19;;;9.25;59.71
11808;BME280;5961;42.640;23.380;2023-04-27T07:33:56;93943.63;;;9.36;59.05
11808;BME280;5961;42.640;23.380;2023-04-27T07:36:24;93944.41;;;9.49;58.55
11808;BME280;5961;42.640;23.380;2023-04-27T07:38:52;93949.78;;;9.61;59.12
11808;BME280;5961;42.640;23.380;2023-04-27T07:41:20;93961.19;;;9.74;58.33
11808;BME280;5961;42.640;23.380;2023-04-27T07:43:47;93962.34;;;9.85;57.41
11808;BME280;5961;42.640;23.380;2023-04-27T07:46:16;93907.03;;;9.75;57.56
11808;BME280;5961;42.640;23.380;2023-04-27T07:48:43;93946.22;;;10.02;57.34
11808;BME280;5961;42.640;23.380;2023-04-27T07:51:09;93954.84;;;10.11;56.82
11808;BME280;5961;42.640;23.380;2023-04-27T07:53:40;93950.47;;;10.15;54.76
11808;BME280;5961;42.640;23.380;2023-04-27T07:56:06;93942.50;;;10.15;54.74
11808;BME280;5961;42.640;23.380;2023-04-27T07:58:35;93950.56;;;10.19;53.51
11808;BME280;5961;42.640;23.380;2023-04-27T08:01:02;93944.03;;;10.16;53.50
11808;BME280;5961;42.640;23.380;2023-04-27T08:03:29;93946.50;;;10.21;52.98
11808;BME280;5961;42.640;23.380;2023-04-27T08:05:56;93946.03;;;10.19;53.29
11808;BME280;5961;42.640;23.380;2023-04-27T08:08:22;93938.19;;;10.23;53.03
11808;BME280;5961;42.640;23.380;2023-04-27T08:10:49;93948.03;;;10.22;53.60
11808;BME280;5961;42.640;23.380;2023-04-27T08:13:16;93943.06;;;10.21;53.99
11808;BME280;5961;42.640;23.380;2023-04-27T08:15:44;93938.63;;;10.37;55.53
11808;BME280;5961;42.640;23.380;2023-04-27T08:18:11;93934.31;;;10.44;52.99
11808;BME280;5961;42.640;23.380;2023-04-27T08:20:37;93940.28;;;10.54;52.60
11808;BME280;5961;42.640;23.380;2023-04-27T08:23:04;93932.88;;;10.59;51.98
11808;BME280;5961;42.640;23.380;2023-04-27T08:25:31;93923.88;;;10.64;51.19
11808;BME280;5961;42.640;23.380;2023-04-27T08:27:58;93935.63;;;10.63;52.63
11808;BME280;5961;42.640;23.380;2023-04-27T08:30:24;93941.16;;;10.58;53.39
11808;BME280;5961;42.640;23.380;2023-04-27T08:32:52;93932.19;;;10.62;53.75
11808;BME280;5961;42.640;23.380;2023-04-27T08:35:20;93935.06;;;10.69;53.38
11808;BME280;5961;42.640;23.380;2023-04-27T08:37:47;93931.53;;;10.65;53.14
11808;BME280;5961;42.640;23.380;2023-04-27T08:40:13;93931.41;;;10.62;52.90
11808;BME280;5961;42.640;23.380;2023-04-27T08:42:53;93920.44;;;10.75;52.09
11808;BME280;5961;42.640;23.380;2023-04-27T08:45:21;93936.69;;;10.86;51.88
11808;BME280;5961;42.640;23.380;2023-04-27T08:47:48;93940.44;;;10.85;52.87
11808;BME280;5961;42.640;23.380;2023-04-27T08:50:16;93946.34;;;10.90;52.77
11808;BME280;5961;42.640;23.380;2023-04-27T08:52:43;93944.66;;;10.98;52.22
11808;BME280;5961;42.640;23.380;2023-04-27T08:55:10;93903.47;;;10.80;51.78
11808;BME280;5961;42.640;23.380;2023-04-27T08:57:37;93935.75;;;11.06;52.56
11808;BME280;5961;42.640;23.380;2023-04-27T09:00:05;93934.84;;;11.14;52.64
11808;BME280;5961;42.640;23.380;2023-04-27T09:02:43;93926.66;;;11.07;52.67
11808;BME280;5961;42.640;23.380;2023-04-27T09:05:16;93933.31;;;11.13;52.67
11808;BME280;5961;42.640;23.380;2023-04-27T09:07:54;93933.72;;;11.15;52.06
11808;BME280;5961;42.640;23.380;2023-04-27T09:10:21;93927.88;;;11.10;52.35
11808;BME280;5961;42.640;23.380;2023-04-27T09:12:54;93943.72;;;11.06;52.68
11808;BME280;5961;42.640;23.380;2023-04-27T09:15:21;93938.66;;;11.01;52.43
11808;BME280;5961;42.640;23.380;2023-04-27T09:17:52;93918.06;;;10.98;51.60
11808;BME280;5961;42.640;23.380;2023-04-27T09:20:21;93931.31;;;11.10;52.60
11808;BME280;5961;42.640;23.380;2023-04-27T09:22:49;93926.53;;;11.16;51.96
11808;BME280;5961;42.640;23.380;2023-04-27T09:25:27;93929.50;;;11.26;52.42
11808;BME280;5961;42.640;23.380;2023-04-27T09:27:54;93897.53;;;11.11;52.22
11808;BME280;5961;42.640;23.380;2023-04-27T09:30:22;93934.31;;;11.36;50.64
11808;BME280;5961;42.640;23.380;2023-04-27T09:32:53;93927.63;;;11.42;49.27
11808;BME280;5961;42.640;23.380;2023-04-27T09:35:23;93927.50;;;11.51;48.92
11808;BME280;5961;42.640;23.380;2023-04-27T09:37:50;93915.75;;;11.52;49.57
11808;BME280;5961;42.640;23.380;2023-04-27T09:40:18;93913.75;;;11.49;50.06
11808;BME280;5961;42.640;23.380;2023-04-27T09:42:48;93900.03;;;11.47;50.17
11808;BME280;5961;42.640;23.380;2023-04-27T09:45:16;93900.13;;;11.50;49.46
11808;BME280;5961;42.640;23.380;2023-04-27T09:47:43;93922.53;;;11.49;48.83
11808;BME280;5961;42.640;23.380;2023-04-27T09:50:12;93863.22;;;11.21;49.04
11808;BME280;5961;42.640;23.380;2023-04-27T09:52:40;93911.00;;;11.45;49.87
11808;BME280;5961;42.640;23.380;2023-04-27T09:55:09;93850.44;;;11.11;50.26
11808;BME280;5961;42.640;23.380;2023-04-27T09:57:40;93902.09;;;11.53;49.86
11808;BME280;5961;42.640;23.380;2023-04-27T10:00:22;93906.75;;;11.56;49.51
11808;BME280;5961;42.640;23.380;2023-04-27T10:03:02;93901.69;;;11.67;48.40
11808;BME280;5961;42.640;23.380;2023-04-27T10:05:48;93894.47;;;11.68;47.96
11808;BME280;5961;42.640;23.380;2023-04-27T10:08:19;93891.94;;;11.71;48.66
11808;BME280;5961;42.640;23.380;2023-04-27T10:10:47;93906.66;;;11.81;48.25
11808;BME280;5961;42.640;23.380;2023-04-27T10:13:21;93892.19;;;11.82;47.74
11808;BME280;5961;42.640;23.380;2023-04-27T10:15:48;93903.63;;;11.82;47.36
11808;BME280;5961;42.640;23.380;2023-04-27T10:18:27;93890.13;;;11.91;46.50
11808;BME280;5961;42.640;23.380;2023-04-27T10:20:55;93891.28;;;11.90;45.99
11808;BME280;5961;42.640;23.380;2023-04-27T10:23:24;93902.75;;;11.94;46.66
11808;BME280;5961;42.640;23.380;2023-04-27T10:25:52;93905.09;;;11.95;46.85
11808;BME280;5961;42.640;23.380;2023-04-27T10:28:20;93896.34;;;11.95;46.60
11808;BME280;5961;42.640;23.380;2023-04-27T10:30:46;93889.38;;;12.06;46.35
11808;BME280;5961;42.640;23.380;2023-04-27T10:33:15;93891.09;;;12.14;46.52
11808;BME280;5961;42.640;23.380;2023-04-27T10:35:44;93886.97;;;12.17;45.94
11808;BME280;5961;42.640;23.380;2023-04-27T10:38:19;93888.69;;;12.25;46.19
11808;BME280;5961;42.640;23.380;2023-04-27T10:40:55;93887.28;;;12.31;46.45
11808;BME280;5961;42.640;23.380;2023-04-27T10:43:24;93905.34;;;12.37;45.88
11808;BME280;5961;42.640;23.380;2023-04-27T10:45:52;93891.69;;;12.39;44.35
11808;BME280;5961;42.640;23.380;2023-04-27T10:48:18;93892.59;;;12.46;44.66
11808;BME280;5961;42.640;23.380;2023-04-27T10:50:45;93887.16;;;12.58;44.13
11808;BME280;5961;42.640;23.380;2023-04-27T10:53:13;93888.22;;;12.54;44.16
11808;BME280;5961;42.640;23.380;2023-04-27T10:55:39;93882.81;;;12.70;44.20
11808;BME280;5961;42.640;23.380;2023-04-27T10:58:07;93886.72;;;12.72;44.44
11808;BME280;5961;42.640;23.380;2023-04-27T11:00:35;93886.78;;;12.76;43.70
11808;BME280;5961;42.640;23.380;2023-04-27T11:03:11;93880.31;;;12.77;43.16
11808;BME280;5961;42.640;23.380;2023-04-27T11:05:38;93884.31;;;12.67;43.07
11808;BME280;5961;42.640;23.380;2023-04-27T11:08:06;93882.91;;;12.73;43.00
11808;BME280;5961;42.640;23.380;2023-04-27T11:10:33;93886.31;;;12.89;42.47
11808;BME280;5961;42.640;23.380;2023-04-27T11:13:08;93880.03;;;12.82;42.63
11808;BME280;5961;42.640;23.380;2023-04-27T11:15:43;93891.94;;;12.84;42.99
11808;BME280;5961;42.640;23.380;2023-04-27T11:18:10;93890.78;;;12.85;41.98
11808;BME280;5961;42.640;23.380;2023-04-27T11:20:37;93889.25;;;12.84;42.17
11808;BME280;5961;42.640;23.380;2023-04-27T11:23:03;93884.63;;;12.81;41.60
11808;BME280;5961;42.640;23.380;2023-04-27T11:25:30;93881.50;;;12.79;41.67
11808;BME280;5961;42.640;23.380;2023-04-27T11:27:57;93889.25;;;12.84;41.51
11808;BME280;5961;42.640;23.380;2023-04-27T11:30:25;93889.69;;;12.86;41.25
11808;BME280;5961;42.640;23.380;2023-04-27T11:32:52;93915.41;;;12.79;42.18
11808;BME280;5961;42.640;23.380;2023-04-27T11:35:19;93883.69;;;12.74;42.84
11808;BME280;5961;42.640;23.380;2023-04-27T11:37:55;93886.63;;;12.69;42.18
11808;BME280;5961;42.640;23.380;2023-04-27T11:40:23;93889.31;;;12.69;43.14
11808;BME280;5961;42.640;23.380;2023-04-27T11:42:56;93864.38;;;12.61;43.41
11808;BME280;5961;42.640;23.380;2023-04-27T11:45:25;93891.28;;;12.72;42.91
11808;BME280;5961;42.640;23.380;2023-04-27T11:47:53;93880.59;;;12.72;43.32
11808;BME280;5961;42.640;23.380;2023-04-27T11:50:22;93890.00;;;12.85;43.72
11808;BME280;5961;42.640;23.380;2023-04-27T11:52:49;93886.50;;;12.81;42.48
11808;BME280;5961;42.640;23.380;2023-04-27T11:55:19;93898.00;;;12.85;42.93
11808;BME280;5961;42.640;23.380;2023-04-27T11:57:46;93899.41;;;12.79;42.86
11808;BME280;5961;42.640;23.380;2023-04-27T12:00:14;93885.75;;;12.80;43.33
11808;BME280;5961;42.640;23.380;2023-04-27T12:02:42;93898.13;;;12.73;43.01
11808;BME280;5961;42.640;23.380;2023-04-27T12:05:09;93905.38;;;12.72;43.75
11808;BME280;5961;42.640;23.380;2023-04-27T12:07:36;93902.03;;;12.75;43.09
11808;BME280;5961;42.640;23.380;2023-04-27T12:10:04;93901.25;;;12.75;42.63
11808;BME280;5961;42.640;23.380;2023-04-27T12:12:31;93908.75;;;12.69;42.90
11808;BME280;5961;42.640;23.380;2023-04-27T12:14:58;93913.53;;;12.63;43.19
11808;BME280;5961;42.640;23.380;2023-04-27T12:17:24;93913.59;;;12.48;43.45
11808;BME280;5961;42.640;23.380;2023-04-27T12:19:52;93899.22;;;12.52;43.58
11808;BME280;5961;42.640;23.380;2023-04-27T12:22:19;93901.56;;;12.54;43.86
11808;BME280;5961;42.640;23.380;2023-04-27T12:24:46;93921.41;;;12.56;43.70
11808;BME280;5961;42.640;23.380;2023-04-27T12:27:12;93904.13;;;12.50;43.12
11808;BME280;5961;42.640;23.380;2023-04-27T12:29:39;93910.56;;;12.49;43.79
11808;BME280;5961;42.640;23.380;2023-04-27T12:32:06;93909.00;;;12.48;43.41
11808;BME280;5961;42.640;23.380;2023-04-27T12:34:33;93909.19;;;12.55;43.71
11808;BME280;5961;42.640;23.380;2023-04-27T12:37:01;93904.13;;;12.50;43.09
11808;BME280;5961;42.640;23.380;2023-04-27T12:39:28;93879.88;;;12.40;43.44
11808;BME280;5961;42.640;23.380;2023-04-27T12:41:55;93911.56;;;12.60;43.93
11808;BME280;5961;42.640;23.380;2023-04-27T12:44:22;93909.50;;;12.70;43.53
11808;BME280;5961;42.640;23.380;2023-04-27T12:46:49;93902.97;;;12.67;43.43
11808;BME280;5961;42.640;23.380;2023-04-27T12:49:16;93918.34;;;12.74;44.40
11808;BME280;5961;42.640;23.380;2023-04-27T12:51:43;93922.56;;;12.75;44.01
11808;BME280;5961;42.640;23.380;2023-04-27T12:54:13;93925.84;;;12.68;43.47
11808;BME280;5961;42.640;23.380;2023-04-27T12:56:40;93915.59;;;12.70;43.13
11808;BME280;5961;42.640;23.380;2023-04-27T12:59:07;93911.91;;;12.75;43.36
11808;BME280;5961;42.640;23.380;2023-04-27T13:01:34;93902.34;;;12.74;44.21
11808;BME280;5961;42.640;23.380;2023-04-27T13:04:02;93909.38;;;12.82;44.27
11808;BME280;5961;42.640;23.380;2023-04-27T13:06:29;93907.41;;;12.79;43.63
11808;BME280;5961;42.640;23.380;2023-04-27T13:08:56;93909.94;;;12.91;43.51
11808;BME280;5961;42.640;23.380;2023-04-27T13:11:24;93923.56;;;12.86;43.30